createdAt,value
2022-12-22T00:01:34.018Z,94742.63
2022-12-22T00:04:19.418Z,94738.44
2022-12-22T00:07:06.260Z,94725.75
2022-12-22T00:09:51.601Z,94731.59
2022-12-22T00:12:38.342Z,94734.16
2022-12-22T00:15:24.789Z,94741.09
2022-12-22T00:18:10.398Z,94738.13
2022-12-22T00:20:55.838Z,94740.78
2022-12-22T00:23:42.939Z,94733.63
2022-12-22T00:26:28.269Z,94738.25
2022-12-22T00:29:13.609Z,94738.63
2022-12-22T00:31:59.892Z,94724.75
2022-12-22T00:34:47.785Z,94741.06
2022-12-22T00:37:33.434Z,94730.75
2022-12-22T00:40:20.661Z,94737.72
2022-12-22T00:43:06.260Z,94734.66
2022-12-22T00:45:51.884Z,94722.31
2022-12-22T00:48:42.667Z,94732.31
2022-12-22T00:51:28.651Z,94722.09
2022-12-22T00:54:14.786Z,94723.94
2022-12-22T00:57:01.552Z,94717.09
2022-12-22T00:59:47.362Z,94702.06
2022-12-22T01:02:33.097Z,94721.69
2022-12-22T01:05:18.676Z,94710.97
2022-12-22T01:08:03.716Z,94717.91
2022-12-22T01:10:49.255Z,94711.75
2022-12-22T01:13:35.996Z,94707.16
2022-12-22T01:16:21.893Z,94708.91
2022-12-22T01:19:07.438Z,94702.69
2022-12-22T01:21:52.593Z,94687.25
2022-12-22T01:24:38.354Z,94692.69
2022-12-22T01:27:23.516Z,94694.22
2022-12-22T01:30:10.515Z,94701.56
2022-12-22T01:32:55.954Z,94695.13
2022-12-22T01:35:43.589Z,94695.66
2022-12-22T01:38:29.172Z,94688.59
2022-12-22T01:41:16.714Z,94697.78
2022-12-22T01:44:02.106Z,94695.53
2022-12-22T01:46:52.155Z,94695.59
2022-12-22T01:49:42.101Z,94684.47
2022-12-22T01:52:29.791Z,94696.50
2022-12-22T01:55:20.284Z,94693.63
2022-12-22T01:58:06.354Z,94697.88
2022-12-22T02:00:51.559Z,94699.13
2022-12-22T02:03:40.256Z,94700.25
2022-12-22T02:06:38.586Z,94701.88
2022-12-22T02:09:41.556Z,94682.53
2022-12-22T02:12:35.401Z,94690.75
2022-12-22T02:15:26.348Z,94675.41
2022-12-22T02:18:21.591Z,94696.25
2022-12-22T02:21:13.153Z,94700.13
2022-12-22T02:24:23.019Z,94685.84
2022-12-22T02:27:12.655Z,94682.88
2022-12-22T02:30:01.061Z,94676.88
2022-12-22T02:32:46.499Z,94686.75
2022-12-22T02:35:33.896Z,94684.06
2022-12-22T02:38:28.447Z,94682.97
2022-12-22T02:41:25.156Z,94679.47
2022-12-22T02:44:26.254Z,94685.72
2022-12-22T02:47:21.655Z,94681.00
2022-12-22T02:50:13.175Z,94678.34
2022-12-22T02:53:00.911Z,94658.31
2022-12-22T02:55:46.817Z,94675.38
2022-12-22T02:58:32.458Z,94670.28
2022-12-22T03:01:20.340Z,94657.78
2022-12-22T03:04:06.755Z,94676.00
2022-12-22T03:06:52.328Z,94680.72
2022-12-22T03:09:38.038Z,94676.16
2022-12-22T03:12:23.574Z,94673.19
2022-12-22T03:15:08.926Z,94681.41
2022-12-22T03:17:55.791Z,94681.97
2022-12-22T03:20:40.893Z,94677.41
2022-12-22T03:23:26.370Z,94681.72
2022-12-22T03:25:54.760Z,94679.88
2022-12-22T03:28:23.951Z,94666.00
2022-12-22T03:30:57.354Z,94675.72
2022-12-22T03:33:26.964Z,94676.91
2022-12-22T03:35:54.897Z,94661.06
2022-12-22T03:38:22.944Z,94663.75
2022-12-22T03:40:50.934Z,94680.69
2022-12-22T03:43:37.290Z,94666.16
2022-12-22T03:46:22.606Z,94683.41
2022-12-22T03:49:06.361Z,94658.72
2022-12-22T03:51:34.400Z,94685.78
2022-12-22T03:54:02.501Z,94673.31
2022-12-22T03:56:30.751Z,94682.75
2022-12-22T03:58:59.010Z,94682.38
2022-12-22T04:01:27.342Z,94679.09
2022-12-22T04:03:57.023Z,94675.63
2022-12-22T04:06:25.069Z,94685.56
2022-12-22T04:08:53.168Z,94672.66
2022-12-22T04:11:38.851Z,94663.38
2022-12-22T04:14:06.839Z,94684.16
2022-12-22T04:16:35.009Z,94670.66
2022-12-22T04:19:04.801Z,94677.31
2022-12-22T04:21:32.736Z,94676.06
2022-12-22T04:24:00.734Z,94671.47
2022-12-22T04:26:28.794Z,94673.00
2022-12-22T04:28:57.068Z,94673.69
2022-12-22T04:31:25.525Z,94673.53
2022-12-22T04:33:53.564Z,94672.25
2022-12-22T04:36:22.969Z,94672.88
2022-12-22T04:38:50.911Z,94652.41
2022-12-22T04:41:18.839Z,94674.66
2022-12-22T04:43:46.984Z,94665.91
2022-12-22T04:46:15.104Z,94671.69
2022-12-22T04:48:43.268Z,94682.56
2022-12-22T04:51:11.472Z,94675.41
2022-12-22T04:53:40.786Z,94672.63
2022-12-22T04:56:09.874Z,94677.25
2022-12-22T04:58:38.003Z,94660.69
2022-12-22T05:01:14.495Z,94666.44
2022-12-22T05:03:42.660Z,94667.44
2022-12-22T05:06:11.331Z,94667.06
2022-12-22T05:08:40.717Z,94644.72
2022-12-22T05:11:08.979Z,94670.72
2022-12-22T05:13:37.036Z,94655.72
2022-12-22T05:16:06.846Z,94671.63
2022-12-22T05:18:35.479Z,94672.00
2022-12-22T05:21:05.119Z,94667.75
2022-12-22T05:23:33.080Z,94670.81
2022-12-22T05:26:02.495Z,94681.00
2022-12-22T05:28:32.236Z,94683.91
2022-12-22T05:31:05.002Z,94685.91
2022-12-22T05:33:33.203Z,94689.56
2022-12-22T05:36:01.246Z,94670.91
2022-12-22T05:38:29.442Z,94682.81
2022-12-22T05:41:03.517Z,94679.38
2022-12-22T05:43:34.054Z,94687.53
2022-12-22T05:46:04.020Z,94679.47
2022-12-22T05:48:37.964Z,94677.72
2022-12-22T05:51:08.380Z,94660.47
2022-12-22T05:53:36.659Z,94680.28
2022-12-22T05:56:05.571Z,94668.09
2022-12-22T05:58:35.357Z,94675.00
2022-12-22T06:01:03.440Z,94668.53
2022-12-22T06:03:32.647Z,94669.34
2022-12-22T06:06:01.389Z,94681.63
2022-12-22T06:08:30.228Z,94691.31
2022-12-22T06:10:59.931Z,94673.22
2022-12-22T06:13:28.243Z,94679.69
2022-12-22T06:15:57.747Z,94680.34
2022-12-22T06:18:25.887Z,94663.50
2022-12-22T06:20:54.592Z,94680.50
2022-12-22T06:23:23.182Z,94657.50
2022-12-22T06:25:58.486Z,94670.72
2022-12-22T06:28:27.894Z,94668.66
2022-12-22T06:30:57.581Z,94680.44
2022-12-22T06:33:25.730Z,94680.63
2022-12-22T06:35:58.830Z,94685.91
2022-12-22T06:38:28.191Z,94687.66
2022-12-22T06:40:56.369Z,94694.09
2022-12-22T06:43:23.394Z,94671.31
2022-12-22T06:45:51.420Z,94693.28
2022-12-22T06:48:21.090Z,94684.19
2022-12-22T06:50:49.421Z,94692.03
2022-12-22T06:53:17.668Z,94690.56
2022-12-22T06:55:46.695Z,94699.00
2022-12-22T06:58:14.859Z,94675.00
2022-12-22T07:00:43.430Z,94688.91
2022-12-22T07:03:11.616Z,94695.06
2022-12-22T07:05:41.330Z,94702.19
2022-12-22T07:08:09.577Z,94699.78
2022-12-22T07:10:55.620Z,94693.88
2022-12-22T07:13:24.422Z,94700.38
2022-12-22T07:16:00.157Z,94699.56
2022-12-22T07:18:30.055Z,94701.41
2022-12-22T07:20:59.722Z,94712.56
2022-12-22T07:23:28.445Z,94699.69
2022-12-22T07:25:56.798Z,94700.03
2022-12-22T07:28:25.679Z,94686.75
2022-12-22T07:30:56.555Z,94701.44
2022-12-22T07:33:24.757Z,94709.84
2022-12-22T07:36:04.165Z,94690.94
2022-12-22T07:38:34.997Z,94701.25
2022-12-22T07:41:05.446Z,94709.66
2022-12-22T07:43:32.816Z,94696.97
2022-12-22T07:46:01.065Z,94698.09
2022-12-22T07:48:47.345Z,94706.25
2022-12-22T07:51:16.735Z,94709.81
2022-12-22T07:53:44.936Z,94713.88
2022-12-22T07:56:13.001Z,94712.38
2022-12-22T07:58:41.154Z,94697.22
2022-12-22T08:01:09.274Z,94711.72
2022-12-22T08:03:37.686Z,94715.69
2022-12-22T08:06:06.446Z,94705.25
2022-12-22T08:08:36.537Z,94696.56
2022-12-22T08:11:04.903Z,94696.31
2022-12-22T08:13:33.447Z,94708.06
2022-12-22T08:16:05.234Z,94713.25
2022-12-22T08:18:34.364Z,94712.81
2022-12-22T08:21:03.181Z,94705.94
2022-12-22T08:23:31.710Z,94700.41
2022-12-22T08:26:04.945Z,94704.84
2022-12-22T08:28:35.698Z,94704.91
2022-12-22T08:31:05.316Z,94704.91
2022-12-22T08:33:33.783Z,94720.69
2022-12-22T08:36:07.827Z,94721.66
2022-12-22T08:38:36.992Z,94718.53
2022-12-22T08:41:07.120Z,94715.78
2022-12-22T08:43:35.146Z,94709.47
2022-12-22T08:46:03.359Z,94707.97
2022-12-22T08:48:31.431Z,94707.75
2022-12-22T08:50:59.849Z,94702.75
2022-12-22T08:54:03.455Z,94709.41
2022-12-22T08:56:17.508Z,94707.69
2022-12-22T08:58:45.645Z,94701.06
2022-12-22T09:01:18.794Z,94698.59
2022-12-22T09:03:50.741Z,94694.34
2022-12-22T09:06:22.446Z,94704.97
2022-12-22T09:08:55.793Z,94684.47
2022-12-22T09:11:25.787Z,94691.19
2022-12-22T09:13:55.400Z,94688.81
2022-12-22T09:16:27.101Z,94676.72
2022-12-22T09:18:57.579Z,94679.13
2022-12-22T09:21:26.211Z,94688.63
2022-12-22T09:23:55.211Z,94685.34
2022-12-22T09:26:28.699Z,94681.31
2022-12-22T09:28:57.647Z,94672.19
2022-12-22T09:31:27.298Z,94667.31
2022-12-22T09:33:55.509Z,94680.03
2022-12-22T09:36:26.082Z,94680.44
2022-12-22T09:38:54.738Z,94682.72
2022-12-22T09:41:31.768Z,94672.72
2022-12-22T09:44:04.370Z,94680.75
2022-12-22T09:46:36.029Z,94670.31
2022-12-22T09:49:06.842Z,94671.88
2022-12-22T09:51:40.742Z,94668.47
2022-12-22T09:54:11.955Z,94663.47
2022-12-22T09:56:41.964Z,94655.84
2022-12-22T09:59:12.997Z,94656.97
2022-12-22T10:01:56.963Z,94661.66
2022-12-22T10:04:40.862Z,94647.41
2022-12-22T10:07:18.291Z,94637.66
2022-12-22T10:09:50.178Z,94628.22
2022-12-22T10:12:23.517Z,94620.81
2022-12-22T10:14:53.830Z,94611.97
2022-12-22T10:17:25.958Z,94622.53
2022-12-22T10:19:56.128Z,94613.13
2022-12-22T10:22:30.203Z,94600.63
2022-12-22T10:24:59.018Z,94599.13
2022-12-22T10:27:31.928Z,94603.47
2022-12-22T10:30:22.205Z,94606.13
2022-12-22T10:33:04.080Z,94596.09
2022-12-22T10:35:51.343Z,94596.59
2022-12-22T10:38:24.259Z,94586.06
2022-12-22T10:41:01.750Z,94579.09
2022-12-22T10:43:34.172Z,94582.31
2022-12-22T10:46:03.548Z,94573.25
2022-12-22T10:48:38.015Z,94578.72
2022-12-22T10:51:09.970Z,94564.31
2022-12-22T10:53:47.673Z,94566.06
2022-12-22T10:56:26.291Z,94572.22
2022-12-22T10:58:57.361Z,94575.59
2022-12-22T11:01:29.389Z,94554.13
2022-12-22T11:03:59.522Z,94562.63
2022-12-22T11:06:28.467Z,94553.00
2022-12-22T11:09:16.882Z,94556.69
2022-12-22T11:11:51.566Z,94556.91
2022-12-22T11:14:31.939Z,94548.22
2022-12-22T11:17:04.826Z,94542.91
2022-12-22T11:19:59.814Z,94535.94
2022-12-22T11:22:39.864Z,94536.28
2022-12-22T11:25:30.952Z,94527.72
2022-12-22T11:28:18.081Z,94543.66
2022-12-22T11:30:56.579Z,94531.16
2022-12-22T11:33:41.739Z,94527.56
2022-12-22T11:36:19.024Z,94523.38
2022-12-22T11:38:51.490Z,94521.81
2022-12-22T11:41:36.086Z,94534.50
2022-12-22T11:44:19.060Z,94513.84
2022-12-22T11:46:54.885Z,94511.44
2022-12-22T11:49:46.737Z,94509.44
2022-12-22T11:52:30.772Z,94521.03
2022-12-22T11:55:15.091Z,94506.72
2022-12-22T11:57:57.038Z,94510.25
2022-12-22T12:00:42.706Z,94511.19
2022-12-22T12:03:57.399Z,94508.75
2022-12-22T12:06:46.098Z,94502.97
2022-12-22T12:09:29.611Z,94501.50
2022-12-22T12:12:04.917Z,94505.56
2022-12-22T12:14:40.054Z,94498.00
2022-12-22T12:17:19.497Z,94477.28
2022-12-22T12:20:02.073Z,94486.09
2022-12-22T12:22:44.224Z,94481.44
2022-12-22T12:25:26.215Z,94492.72
2022-12-22T12:28:09.565Z,94487.56
2022-12-22T12:30:46.344Z,94488.81
2022-12-22T12:33:19.243Z,94485.28
2022-12-22T12:36:00.193Z,94484.81
2022-12-22T12:39:06.951Z,94483.28
2022-12-22T12:41:35.088Z,94486.53
2022-12-22T12:44:04.394Z,94472.16
2022-12-22T12:47:13.701Z,94465.38
2022-12-22T12:49:58.875Z,94470.59
2022-12-22T12:53:14.936Z,94470.66
2022-12-22T12:55:59.035Z,94474.31
2022-12-22T12:58:49.959Z,94478.25
2022-12-22T13:02:03.184Z,94467.41
2022-12-22T13:05:13.933Z,94475.47
2022-12-22T13:08:11.664Z,94476.66
2022-12-22T13:10:42.811Z,94456.28
2022-12-22T13:13:47.478Z,94464.69
2022-12-22T13:16:30.753Z,94471.88
2022-12-22T13:19:00.268Z,94462.09
2022-12-22T13:21:52.770Z,94465.44
2022-12-22T13:24:28.541Z,94456.25
2022-12-22T13:27:05.539Z,94460.56
2022-12-22T13:29:44.751Z,94451.25
2022-12-22T13:32:29.099Z,94464.06
2022-12-22T13:37:57.601Z,94458.19
2022-12-22T13:40:28.533Z,94462.22
2022-12-22T13:42:59.052Z,94455.28
2022-12-22T13:45:35.944Z,94458.38
2022-12-22T13:48:10.540Z,94457.94
2022-12-22T13:50:41.460Z,94439.81
2022-12-22T13:53:41.489Z,94432.97
2022-12-22T13:56:06.972Z,94453.91
2022-12-22T13:58:40.665Z,94449.16
2022-12-22T14:01:19.966Z,94457.63
2022-12-22T14:04:01.421Z,94450.28
2022-12-22T14:06:32.372Z,94453.34
2022-12-22T14:09:16.779Z,94449.03
2022-12-22T14:11:51.930Z,94437.41
2022-12-22T14:14:25.059Z,94454.13
2022-12-22T14:16:57.009Z,94443.31
2022-12-22T14:19:26.485Z,94449.59
2022-12-22T14:22:03.960Z,94451.00
2022-12-22T14:24:38.684Z,94437.16
2022-12-22T14:27:13.780Z,94426.88
2022-12-22T14:29:42.203Z,94441.94
2022-12-22T14:32:39.591Z,94441.28
2022-12-22T14:35:22.741Z,94430.59
2022-12-22T14:37:52.836Z,94439.66
2022-12-22T14:40:32.357Z,94438.34
2022-12-22T14:43:02.812Z,94433.16
2022-12-22T14:45:32.440Z,94427.63
2022-12-22T14:48:02.075Z,94431.34
2022-12-22T14:50:30.927Z,94441.38
2022-12-22T14:53:00.685Z,94445.72
2022-12-22T14:55:32.482Z,94448.13
2022-12-22T14:58:05.430Z,94445.00
2022-12-22T15:00:39.272Z,94425.88
2022-12-22T15:03:31.468Z,94449.47
2022-12-22T15:06:24.214Z,94454.47
2022-12-22T15:08:53.925Z,94440.94
2022-12-22T15:11:25.231Z,94463.53
2022-12-22T15:13:53.542Z,94459.03
2022-12-22T15:16:24.268Z,94461.22
2022-12-22T15:18:54.658Z,94452.34
2022-12-22T15:21:23.532Z,94451.13
2022-12-22T15:23:51.568Z,94438.94
2022-12-22T15:26:19.801Z,94457.13
2022-12-22T15:28:48.162Z,94449.50
2022-12-22T15:31:18.040Z,94453.06
2022-12-22T15:33:46.987Z,94455.06
2022-12-22T15:36:16.731Z,94456.44
2022-12-22T15:38:45.121Z,94466.38
2022-12-22T15:41:13.234Z,94467.88
2022-12-22T15:43:58.765Z,94461.56
2022-12-22T15:46:28.569Z,94469.88
2022-12-22T15:48:56.951Z,94469.75
2022-12-22T15:51:30.618Z,94459.84
2022-12-22T15:54:00.612Z,94480.44
2022-12-22T15:56:33.551Z,94470.06
2022-12-22T15:59:03.233Z,94478.28
2022-12-22T16:01:31.525Z,94473.13
2022-12-22T16:03:59.679Z,94469.66
2022-12-22T16:06:29.943Z,94472.00
2022-12-22T16:09:05.945Z,94464.72
2022-12-22T16:11:37.916Z,94486.91
2022-12-22T16:14:07.379Z,94486.88
2022-12-22T16:16:36.180Z,94481.44
2022-12-22T16:19:04.741Z,94494.78
2022-12-22T16:21:34.457Z,94494.31
2022-12-22T16:24:04.081Z,94491.09
2022-12-22T16:26:32.531Z,94499.22
2022-12-22T16:29:01.018Z,94487.59
2022-12-22T16:31:29.123Z,94484.06
2022-12-22T16:33:58.377Z,94485.28
2022-12-22T16:36:27.103Z,94487.25
2022-12-22T16:38:56.521Z,94483.66
2022-12-22T16:41:27.458Z,94475.97
2022-12-22T16:46:45.331Z,94476.94
2022-12-22T16:49:26.141Z,94481.50
2022-12-22T16:51:56.121Z,94473.63
2022-12-22T16:54:28.495Z,94480.22
2022-12-22T16:56:56.702Z,94485.22
2022-12-22T16:59:26.506Z,94470.88
2022-12-22T17:01:57.212Z,94479.47
2022-12-22T17:04:29.906Z,94462.91
2022-12-22T17:07:00.803Z,94473.88
2022-12-22T17:09:40.683Z,94459.50
2022-12-22T17:12:12.144Z,94467.97
2022-12-22T17:14:41.268Z,94477.31
2022-12-22T17:17:16.230Z,94477.16
2022-12-22T17:19:44.634Z,94486.38
2022-12-22T17:22:24.451Z,94488.75
2022-12-22T17:24:57.006Z,94491.69
2022-12-22T17:27:28.819Z,94487.84
2022-12-22T17:29:58.313Z,94490.34
2022-12-22T17:32:33.055Z,94497.38
2022-12-22T17:35:01.156Z,94494.63
2022-12-22T17:37:30.927Z,94482.06
2022-12-22T17:40:07.405Z,94465.00
2022-12-22T17:42:36.459Z,94490.88
2022-12-22T17:45:04.869Z,94480.28
2022-12-22T17:47:38.853Z,94478.78
2022-12-22T17:50:15.331Z,94484.34
2022-12-22T17:52:44.089Z,94491.91
2022-12-22T17:56:01.324Z,94471.88
2022-12-22T17:58:19.801Z,94485.28
2022-12-22T18:00:48.384Z,94478.97
2022-12-22T18:03:18.069Z,94489.47
2022-12-22T18:05:48.808Z,94481.81
2022-12-22T18:08:22.650Z,94472.84
2022-12-22T18:10:52.318Z,94473.16
2022-12-22T18:13:22.634Z,94471.81
2022-12-22T18:15:50.957Z,94484.41
2022-12-22T18:18:21.718Z,94485.50
2022-12-22T18:21:06.977Z,94471.84
2022-12-22T18:23:41.083Z,94476.03
2022-12-22T18:26:35.508Z,94489.16
2022-12-22T18:29:04.401Z,94491.56
2022-12-22T18:31:33.793Z,94492.72
2022-12-22T18:34:02.480Z,94482.72
2022-12-22T18:36:34.037Z,94492.06
2022-12-22T18:39:03.533Z,94502.59
2022-12-22T18:41:35.787Z,94498.94
2022-12-22T18:44:04.172Z,94494.06
2022-12-22T18:46:32.514Z,94486.34
2022-12-22T18:49:05.618Z,94488.38
2022-12-22T18:51:38.041Z,94495.25
2022-12-22T18:54:22.954Z,94498.41
2022-12-22T18:57:01.325Z,94499.34
2022-12-22T18:59:33.091Z,94485.38
2022-12-22T19:02:05.332Z,94497.84
2022-12-22T19:04:33.555Z,94500.78
2022-12-22T19:07:02.037Z,94478.03
2022-12-22T19:09:30.072Z,94497.00
2022-12-22T19:12:00.974Z,94490.50
2022-12-22T19:14:30.039Z,94497.97
2022-12-22T19:17:00.455Z,94481.91
2022-12-22T19:19:31.852Z,94482.75
2022-12-22T19:21:59.978Z,94504.41
2022-12-22T19:24:29.718Z,94494.75
2022-12-22T19:27:01.946Z,94486.63
2022-12-22T19:29:38.187Z,94503.81
2022-12-22T19:32:09.213Z,94486.50
2022-12-22T19:34:38.929Z,94478.34
2022-12-22T19:37:07.407Z,94481.31
2022-12-22T19:39:36.281Z,94500.81
2022-12-22T19:42:06.605Z,94475.88
2022-12-22T19:44:36.295Z,94474.50
2022-12-22T19:47:12.160Z,94490.63
2022-12-22T19:52:23.641Z,94478.03
2022-12-22T19:54:51.991Z,94497.84
2022-12-22T19:57:24.279Z,94499.47
2022-12-22T19:59:54.375Z,94495.44
2022-12-22T20:02:28.598Z,94495.13
2022-12-22T20:04:58.554Z,94497.09
2022-12-22T20:07:31.833Z,94503.28
2022-12-22T20:10:01.085Z,94500.41
2022-12-22T20:12:35.610Z,94513.91
2022-12-22T20:15:15.142Z,94516.09
2022-12-22T20:17:44.531Z,94507.63
2022-12-22T20:20:15.461Z,94498.16
2022-12-22T20:22:47.919Z,94519.97
2022-12-22T20:25:21.415Z,94515.50
2022-12-22T20:27:57.284Z,94523.13
2022-12-22T20:30:28.268Z,94509.06
2022-12-22T20:32:56.787Z,94510.84
2022-12-22T20:35:26.960Z,94518.44
2022-12-22T20:37:55.099Z,94494.28
2022-12-22T20:40:25.840Z,94497.03
2022-12-22T20:42:55.546Z,94503.53
2022-12-22T20:45:24.136Z,94500.13
2022-12-22T20:47:53.556Z,94495.03
2022-12-22T20:50:23.118Z,94497.09
2022-12-22T20:52:52.199Z,94501.78
2022-12-22T20:55:22.078Z,94485.97
2022-12-22T20:57:51.756Z,94480.44
2022-12-22T21:00:24.615Z,94499.91
2022-12-22T21:02:55.049Z,94500.41
2022-12-22T21:05:25.084Z,94470.56
2022-12-22T21:07:53.765Z,94499.84
2022-12-22T21:10:27.291Z,94499.66
2022-12-22T21:13:16.113Z,94499.34
2022-12-22T21:15:54.503Z,94492.47
2022-12-22T21:18:25.136Z,94494.72
2022-12-22T21:20:54.335Z,94496.66
2022-12-22T21:23:22.481Z,94491.75
2022-12-22T21:25:54.064Z,94494.66
2022-12-22T21:28:27.743Z,94496.53
2022-12-22T21:30:58.209Z,94495.59
2022-12-22T21:33:26.800Z,94482.81
2022-12-22T21:35:57.109Z,94490.09
2022-12-22T21:38:29.129Z,94490.16
2022-12-22T21:40:58.934Z,94489.47
2022-12-22T21:43:27.254Z,94495.28
2022-12-22T21:45:57.113Z,94481.41
2022-12-22T21:48:25.344Z,94488.97
2022-12-22T21:50:53.720Z,94482.25
2022-12-22T21:53:23.013Z,94481.59
2022-12-22T21:55:51.606Z,94480.31
2022-12-22T21:58:19.744Z,94475.19
2022-12-22T22:00:50.398Z,94489.41
2022-12-22T22:03:21.065Z,94478.00
2022-12-22T22:05:51.998Z,94482.22
2022-12-22T22:08:21.361Z,94482.88
2022-12-22T22:10:50.464Z,94458.81
2022-12-22T22:13:18.519Z,94476.16
2022-12-22T22:15:46.831Z,94475.00
2022-12-22T22:18:17.455Z,94463.16
2022-12-22T22:20:48.080Z,94461.31
2022-12-22T22:23:17.189Z,94475.75
2022-12-22T22:25:47.613Z,94466.94
2022-12-22T22:28:15.728Z,94456.66
2022-12-22T22:30:43.858Z,94455.75
2022-12-22T22:33:12.876Z,94468.75
2022-12-22T22:35:41.954Z,94450.31
2022-12-22T22:38:14.125Z,94458.03
2022-12-22T22:40:44.075Z,94454.09
2022-12-22T22:43:12.688Z,94441.34
2022-12-22T22:45:41.821Z,94441.78
2022-12-22T22:48:18.499Z,94444.41
2022-12-22T22:50:47.122Z,94447.03
2022-12-22T22:53:17.011Z,94427.94
2022-12-22T22:55:45.231Z,94424.09
2022-12-22T22:58:13.551Z,94428.97
2022-12-22T23:00:41.750Z,94417.22
2022-12-22T23:03:10.663Z,94425.09
2022-12-22T23:05:38.990Z,94423.34
2022-12-22T23:08:07.216Z,94407.75
2022-12-22T23:10:41.620Z,94412.28
2022-12-22T23:13:10.651Z,94423.22
2022-12-22T23:15:38.846Z,94414.47
2022-12-22T23:18:07.087Z,94411.53
2022-12-22T23:20:35.317Z,94410.47
2022-12-22T23:23:03.407Z,94401.41
2022-12-22T23:25:31.824Z,94399.16
2022-12-22T23:28:01.749Z,94369.00
2022-12-22T23:30:29.799Z,94386.97
2022-12-22T23:32:58.138Z,94369.06
2022-12-22T23:35:26.696Z,94384.81
2022-12-22T23:37:55.026Z,94377.44
2022-12-22T23:40:50.953Z,94382.44
2022-12-22T23:43:14.117Z,94379.13
2022-12-22T23:45:42.151Z,94389.06
2022-12-22T23:48:11.107Z,94378.56
2022-12-22T23:50:39.327Z,94385.41
2022-12-22T23:53:07.537Z,94376.31
2022-12-22T23:55:35.687Z,94379.69
2022-12-22T23:58:04.118Z,94372.88
